Time;durP1;ratioP1;P1;durP2;ratioP2;P2;SDS_P1;SDS_P2;PMS_P1;PMS_P2;Temp;Humidity;BMP_temperature;BMP_pressure;BME280_temperature;BME280_humidity;BME280_pressure;Samples;Min_cycle;Max_cycle;Signal;HPM_P1;HPM_P2
2022/03/02 00:01:36;;;;;;;6.70;1.57;;;19.90;43.50;;;;;;4976849;28;20434;-68
2022/03/02 00:04:03;;;;;;;3.73;1.47;;;20.00;43.90;;;;;;4976349;28;20784;-68
2022/03/02 00:06:29;;;;;;;18.80;1.33;;;20.00;44.00;;;;;;4976417;28;20427;-69
2022/03/02 00:08:54;;;;;;;4.23;1.30;;;20.00;44.00;;;;;;4975993;28;20429;-69
2022/03/02 00:11:20;;;;;;;3.00;1.30;;;19.90;44.00;;;;;;4976370;28;20227;-68
2022/03/02 00:13:46;;;;;;;3.00;1.30;;;20.00;44.10;;;;;;4976474;28;20552;-69
2022/03/02 00:16:12;;;;;;;12.93;1.40;;;20.00;44.10;;;;;;4976476;28;20512;-69
2022/03/02 00:18:38;;;;;;;16.63;9.07;;;19.90;44.10;;;;;;4975879;28;20167;-69
2022/03/02 00:21:03;;;;;;;16.87;8.37;;;17.00;25.20;;;;;;4975866;28;20598;-70
2022/03/02 00:23:29;;;;;;;13.07;6.87;;;15.10;35.70;;;;;;4976177;28;20227;-69
2022/03/02 00:25:56;;;;;;;16.20;7.63;;;16.60;41.20;;;;;;4976330;28;20638;-68
2022/03/02 00:28:23;;;;;;;17.20;6.50;;;17.70;41.00;;;;;;4975251;28;20267;-69
2022/03/02 00:30:48;;;;;;;11.60;5.60;;;18.30;40.80;;;;;;4975881;28;20520;-68
2022/03/02 00:33:14;;;;;;;15.03;5.63;;;18.70;40.80;;;;;;4976203;28;20847;-68
2022/03/02 00:35:40;;;;;;;13.80;6.33;;;18.90;40.70;;;;;;4976216;28;20226;-68
2022/03/02 00:38:10;;;;;;;9.73;5.87;;;19.00;41.00;;;;;;4976086;28;20187;-68
2022/03/02 00:40:37;;;;;;;8.77;4.37;;;19.10;41.30;;;;;;4975445;28;20690;-68
2022/03/02 00:43:03;;;;;;;10.50;5.07;;;19.20;41.50;;;;;;4976146;28;20426;-68
2022/03/02 00:45:31;;;;;;;12.80;5.00;;;19.20;41.70;;;;;;4976179;28;20426;-68
2022/03/02 00:47:58;;;;;;;6.37;4.10;;;19.20;41.80;;;;;;4975816;28;20922;-67
2022/03/02 00:50:25;;;;;;;10.13;4.03;;;19.30;42.00;;;;;;4975502;28;20935;-67
2022/03/02 00:52:51;;;;;;;13.63;4.07;;;19.30;42.30;;;;;;4975733;28;20818;-68
2022/03/02 00:55:17;;;;;;;9.43;3.90;;;19.30;42.40;;;;;;4976048;28;20407;-68
2022/03/02 00:57:44;;;;;;;11.80;4.30;;;19.30;42.60;;;;;;4975802;28;20958;-68
2022/03/02 01:00:12;;;;;;;8.80;3.77;;;19.30;42.70;;;;;;4975449;28;20175;-69
2022/03/02 01:02:38;;;;;;;7.63;3.50;;;19.30;42.80;;;;;;4975883;28;20414;-69
2022/03/02 01:05:05;;;;;;;5.77;3.50;;;19.40;43.00;;;;;;4975704;28;20433;-69
2022/03/02 01:07:31;;;;;;;10.83;3.53;;;19.40;43.00;;;;;;4975922;28;20485;-71
2022/03/02 01:09:57;;;;;;;9.20;3.43;;;19.40;43.30;;;;;;4992715;28;20434;-71
2022/03/02 01:12:22;;;;;;;7.90;3.87;;;19.40;43.20;;;;;;4975796;28;20175;-72
2022/03/02 01:14:48;;;;;;;6.13;3.60;;;19.40;43.30;;;;;;4975574;28;20430;-71
2022/03/02 01:17:14;;;;;;;5.97;3.30;;;19.40;43.30;;;;;;4975767;28;20183;-71
2022/03/02 01:19:39;;;;;;;4.80;3.10;;;19.40;43.40;;;;;;4975335;28;20214;-69
2022/03/02 01:22:06;;;;;;;7.33;3.83;;;19.40;43.60;;;;;;4975880;28;20206;-68
2022/03/02 01:24:32;;;;;;;8.77;3.63;;;19.40;43.60;;;;;;4975487;28;20194;-69
2022/03/02 01:26:58;;;;;;;6.60;3.10;;;19.40;43.70;;;;;;4975743;28;20429;-69
2022/03/02 01:29:23;;;;;;;6.03;3.37;;;19.40;43.70;;;;;;4975284;28;20422;-72
2022/03/02 01:31:49;;;;;;;4.10;2.70;;;19.40;43.80;;;;;;4975361;28;20198;-71
2022/03/02 01:34:15;;;;;;;4.40;2.93;;;19.50;44.10;;;;;;4975504;28;20211;-69
2022/03/02 01:36:41;;;;;;;6.17;3.40;;;19.50;44.00;;;;;;4993127;28;21002;-70
2022/03/02 01:39:07;;;;;;;4.97;3.00;;;19.50;44.00;;;;;;4975992;28;20183;-70
2022/03/02 01:41:33;;;;;;;7.23;3.10;;;19.50;44.00;;;;;;4978938;28;20234;-70
2022/03/02 01:43:59;;;;;;;6.30;3.17;;;19.50;44.00;;;;;;4979189;28;20183;-69
2022/03/02 01:46:25;;;;;;;3.30;2.63;;;19.50;44.10;;;;;;4979061;28;20414;-69
2022/03/02 01:48:51;;;;;;;4.53;2.63;;;19.60;44.20;;;;;;4978853;28;20961;-69
2022/03/02 01:51:18;;;;;;;4.90;3.07;;;19.60;44.20;;;;;;4978913;28;20199;-69
2022/03/02 01:53:44;;;;;;;5.43;2.50;;;19.60;44.20;;;;;;4978830;28;20458;-69
2022/03/02 01:56:10;;;;;;;3.80;2.60;;;19.60;44.20;;;;;;4996561;28;20504;-69
2022/03/02 01:58:36;;;;;;;6.73;2.80;;;19.70;44.40;;;;;;4996213;28;20409;-70
2022/03/02 02:01:02;;;;;;;4.47;2.53;;;19.60;44.30;;;;;;4978703;28;20442;-69
2022/03/02 02:03:28;;;;;;;7.07;2.37;;;19.70;44.50;;;;;;4978636;28;20277;-70
2022/03/02 02:05:54;;;;;;;5.10;2.73;;;19.70;44.40;;;;;;4978804;28;20508;-69
2022/03/02 02:08:20;;;;;;;10.67;2.90;;;19.70;44.40;;;;;;4978678;28;20179;-69
2022/03/02 02:10:46;;;;;;;5.10;3.00;;;19.70;44.50;;;;;;4978464;28;20203;-67
2022/03/02 02:13:12;;;;;;;3.53;2.80;;;19.70;44.70;;;;;;4978232;28;20461;-68
2022/03/02 02:15:37;;;;;;;3.40;2.50;;;19.70;44.40;;;;;;4978648;28;20171;-68
2022/03/02 02:18:04;;;;;;;10.10;2.60;;;19.70;44.80;;;;;;4978635;28;20175;-67
2022/03/02 02:20:37;;;;;;;3.40;2.20;;;19.80;45.00;;;;;;4977924;28;20218;-67
2022/03/02 02:23:02;;;;;;;3.73;2.10;;;19.80;45.20;;;;;;4978144;28;20433;-67
2022/03/02 02:25:28;;;;;;;3.40;2.40;;;19.80;45.10;;;;;;4978285;28;20422;-67
2022/03/02 02:27:54;;;;;;;4.10;2.47;;;19.80;45.20;;;;;;4978286;28;20179;-67
2022/03/02 02:30:21;;;;;;;6.80;2.77;;;19.80;45.10;;;;;;4977790;28;20203;-68
2022/03/02 02:32:47;;;;;;;8.17;2.80;;;19.80;45.10;;;;;;4977890;28;20234;-68
2022/03/02 02:35:13;;;;;;;3.80;2.33;;;19.80;45.10;;;;;;4977989;28;20496;-69
2022/03/02 02:37:40;;;;;;;4.27;2.40;;;19.80;45.10;;;;;;4977829;28;20453;-69
2022/03/02 02:40:17;;;;;;;5.33;2.23;;;19.80;45.10;;;;;;4993475;28;20518;-68
2022/03/02 02:42:47;;;;;;;5.93;2.43;;;19.90;45.20;;;;;;4978184;28;20426;-69
2022/03/02 02:45:17;;;;;;;5.50;2.30;;;19.80;45.00;;;;;;4978107;28;20418;-69
2022/03/02 02:47:43;;;;;;;4.63;2.50;;;19.80;45.20;;;;;;4978170;28;20441;-69
2022/03/02 02:50:20;;;;;;;7.30;2.40;;;19.90;45.40;;;;;;4977403;28;20430;-69
2022/03/02 02:52:46;;;;;;;4.70;1.93;;;19.90;45.40;;;;;;4977425;28;20464;-69
2022/03/02 02:55:13;;;;;;;6.10;2.57;;;19.80;45.30;;;;;;4977249;28;20432;-69
2022/03/02 02:57:40;;;;;;;3.03;2.30;;;19.80;45.50;;;;;;4977783;28;20514;-69
2022/03/02 03:00:09;;;;;;;5.97;2.13;;;19.80;45.40;;;;;;4977305;28;20748;-69
2022/03/02 03:02:35;;;;;;;4.10;2.40;;;19.80;45.30;;;;;;4977526;28;20477;-68
2022/03/02 03:05:01;;;;;;;3.77;2.40;;;19.80;45.50;;;;;;4977443;28;20426;-69
2022/03/02 03:07:26;;;;;;;5.00;2.20;;;19.80;45.60;;;;;;4977697;28;20520;-69
2022/03/02 03:09:52;;;;;;;2.67;1.70;;;19.80;45.60;;;;;;4977085;28;20179;-69
2022/03/02 03:12:18;;;;;;;4.30;2.20;;;19.80;45.70;;;;;;4977364;28;20579;-69
2022/03/02 03:14:43;;;;;;;3.27;1.93;;;19.80;45.80;;;;;;4977101;28;20186;-69
2022/03/02 03:17:10;;;;;;;4.17;2.33;;;19.80;46.00;;;;;;4961652;28;20648;-69
2022/03/02 03:19:36;;;;;;;3.83;2.33;;;19.80;46.00;;;;;;4976845;28;20418;-69
2022/03/02 03:22:06;;;;;;;3.77;2.23;;;19.80;46.20;;;;;;4977182;28;20203;-69
2022/03/02 03:24:33;;;;;;;4.20;2.10;;;19.80;46.10;;;;;;4977341;28;20226;-69
2022/03/02 03:26:59;;;;;;;4.03;2.43;;;19.80;46.30;;;;;;4977031;28;20426;-69
2022/03/02 03:29:25;;;;;;;5.40;2.27;;;19.80;46.50;;;;;;4976793;28;20927;-69
2022/03/02 03:31:50;;;;;;;3.67;2.27;;;19.80;46.40;;;;;;4976992;28;20489;-69
2022/03/02 03:34:16;;;;;;;3.83;2.60;;;19.80;46.40;;;;;;4976983;28;20206;-68
2022/03/02 03:36:42;;;;;;;3.83;2.27;;;19.80;46.50;;;;;;4977193;28;20175;-69
2022/03/02 03:39:08;;;;;;;8.30;2.27;;;19.80;46.60;;;;;;4976586;28;20915;-69
2022/03/02 03:41:34;;;;;;;7.83;2.60;;;19.80;46.60;;;;;;4994288;28;20244;-68
2022/03/02 03:44:00;;;;;;;4.37;2.27;;;19.80;46.70;;;;;;4977101;28;20422;-69
2022/03/02 03:46:26;;;;;;;5.13;2.37;;;19.80;46.80;;;;;;4976903;28;20426;-69
2022/03/02 03:48:52;;;;;;;4.07;2.17;;;19.80;46.60;;;;;;4976716;28;20422;-68
2022/03/02 03:51:18;;;;;;;4.47;2.53;;;19.80;46.80;;;;;;4976511;28;20225;-68
2022/03/02 03:53:43;;;;;;;3.30;1.87;;;19.70;46.60;;;;;;4976745;28;20686;-68
2022/03/02 03:56:09;;;;;;;9.83;2.17;;;19.80;46.60;;;;;;4976878;28;20187;-68
2022/03/02 03:58:35;;;;;;;3.37;2.30;;;19.80;46.60;;;;;;4976419;28;20171;-68
2022/03/02 04:01:01;;;;;;;3.30;1.77;;;19.70;46.50;;;;;;4976142;28;20473;-69
2022/03/02 04:03:27;;;;;;;6.10;2.30;;;19.80;46.50;;;;;;4975711;28;20281;-69
2022/03/02 04:05:52;;;;;;;2.93;2.13;;;19.70;46.70;;;;;;4976613;28;20241;-70
2022/03/02 04:08:18;;;;;;;4.57;2.10;;;19.80;46.60;;;;;;4976557;28;20179;-70
2022/03/02 04:10:45;;;;;;;2.90;1.80;;;19.80;46.60;;;;;;4975804;28;20198;-70
2022/03/02 04:13:11;;;;;;;2.50;1.70;;;19.80;46.80;;;;;;4976540;28;20302;-70
2022/03/02 04:15:37;;;;;;;5.00;1.93;;;19.80;46.60;;;;;;4976343;28;20414;-70
2022/03/02 04:18:06;;;;;;;4.60;2.17;;;19.80;46.80;;;;;;4976264;28;20426;-69
2022/03/02 04:20:32;;;;;;;3.10;2.03;;;19.80;46.70;;;;;;4975804;28;20450;-69
2022/03/02 04:22:58;;;;;;;3.80;2.00;;;19.80;46.80;;;;;;4976301;28;20454;-69
2022/03/02 04:25:24;;;;;;;2.47;1.87;;;19.80;46.70;;;;;;4992646;28;20445;-68
2022/03/02 04:27:49;;;;;;;3.93;2.10;;;19.80;46.70;;;;;;4975970;28;20188;-68
2022/03/02 04:30:15;;;;;;;2.60;1.80;;;19.80;46.60;;;;;;4975763;28;20195;-68
2022/03/02 04:32:41;;;;;;;3.00;1.80;;;19.70;46.70;;;;;;4976225;28;20203;-68
2022/03/02 04:35:09;;;;;;;3.70;2.10;;;19.80;46.70;;;;;;4976202;28;20612;-68
2022/03/02 04:37:35;;;;;;;3.17;2.00;;;19.70;46.60;;;;;;4975917;28;20410;-68
2022/03/02 04:40:01;;;;;;;3.20;2.17;;;19.80;46.70;;;;;;4975393;28;20426;-68
2022/03/02 04:42:26;;;;;;;3.67;1.60;;;19.80;46.60;;;;;;4976181;28;20419;-68
2022/03/02 04:44:52;;;;;;;2.37;1.63;;;19.80;46.70;;;;;;4976030;28;20262;-68
2022/03/02 04:47:17;;;;;;;2.63;1.50;;;19.80;46.60;;;;;;4993639;28;20167;-68
2022/03/02 04:49:43;;;;;;;2.67;1.60;;;19.80;46.60;;;;;;4992928;28;20644;-68
2022/03/02 04:52:09;;;;;;;3.33;1.90;;;19.80;46.60;;;;;;4975999;28;20290;-68
2022/03/02 04:57:18;;;;;;;2.37;1.60;;;19.80;46.60;;;;;;4993936;28;20630;-69
2022/03/02 04:59:44;;;;;;;3.50;1.47;;;19.80;46.80;;;;;;4975315;28;20418;-69
2022/03/02 05:02:10;;;;;;;2.63;1.73;;;19.80;46.60;;;;;;4998651;28;20194;-69
2022/03/02 05:04:35;;;;;;;4.20;2.00;;;19.80;46.70;;;;;;4993272;28;20175;-68
2022/03/02 05:07:01;;;;;;;2.83;1.60;;;19.80;46.60;;;;;;4992953;28;20241;-68
2022/03/02 05:09:27;;;;;;;2.83;1.60;;;19.80;46.50;;;;;;4992775;28;20206;-68
2022/03/02 05:11:54;;;;;;;10.17;2.10;;;19.80;46.60;;;;;;4975444;28;20493;-68
2022/03/02 05:14:20;;;;;;;3.57;1.80;;;19.80;46.30;;;;;;4976603;28;20990;-68
2022/03/02 05:16:45;;;;;;;2.80;1.50;;;19.90;46.60;;;;;;4979312;28;20442;-69
2022/03/02 05:19:11;;;;;;;2.70;1.63;;;19.90;46.80;;;;;;4978494;28;20181;-70
2022/03/02 05:21:37;;;;;;;5.10;1.57;;;19.90;46.60;;;;;;4979145;28;20211;-69
2022/03/02 05:24:03;;;;;;;2.77;1.70;;;19.90;46.60;;;;;;4979669;28;20179;-69
2022/03/02 05:26:28;;;;;;;2.27;1.50;;;19.90;46.60;;;;;;4979252;28;20569;-68
2022/03/02 05:28:55;;;;;;;3.83;1.47;;;19.90;46.50;;;;;;4995756;28;20477;-68
2022/03/02 05:31:23;;;;;;;3.43;1.70;;;19.90;46.40;;;;;;4989232;28;20203;-68
2022/03/02 05:33:51;;;;;;;3.40;1.67;;;19.90;46.50;;;;;;4979295;28;20527;-68
2022/03/02 05:36:17;;;;;;;6.37;1.30;;;20.00;46.60;;;;;;4979253;28;20831;-69
2022/03/02 05:38:43;;;;;;;2.53;1.50;;;19.90;46.40;;;;;;4978780;28;20422;-68
2022/03/02 05:41:08;;;;;;;2.30;1.40;;;20.00;46.60;;;;;;4978830;28;20446;-68
2022/03/02 05:43:34;;;;;;;2.43;1.60;;;19.90;46.60;;;;;;4979178;28;20209;-68
2022/03/02 05:46:00;;;;;;;11.70;1.60;;;20.00;46.40;;;;;;4979062;28;20179;-68
2022/03/02 05:48:26;;;;;;;5.23;2.70;;;20.00;46.40;;;;;;4978539;28;20414;-68
2022/03/02 05:50:52;;;;;;;11.03;5.30;;;20.00;45.10;;;;;;4978762;28;20448;-66
2022/03/02 05:53:17;;;;;;;14.33;6.20;;;19.90;40.80;;;;;;4978439;28;20195;-67
2022/03/02 05:55:43;;;;;;;12.63;8.23;;;19.10;38.50;;;;;;4978946;28;20230;-67
2022/03/02 05:58:09;;;;;;;11.23;6.07;;;18.60;37.10;;;;;;4978858;28;20175;-67
2022/03/02 06:00:36;;;;;;;11.70;6.13;;;18.50;40.80;;;;;;4977889;28;20191;-65
2022/03/02 06:03:02;;;;;;;12.13;5.80;;;19.00;43.10;;;;;;4996374;28;20543;-66
2022/03/02 06:05:28;;;;;;;11.30;5.90;;;19.30;42.90;;;;;;4996219;28;20472;-67
2022/03/02 06:07:54;;;;;;;17.57;5.30;;;19.40;43.10;;;;;;4996030;28;20418;-67
2022/03/02 06:10:20;;;;;;;11.63;4.77;;;19.50;43.40;;;;;;4995459;28;20282;-69
2022/03/02 06:12:46;;;;;;;9.20;4.80;;;19.60;43.60;;;;;;4978416;28;20195;-68
2022/03/02 06:15:12;;;;;;;20.77;5.47;;;19.60;43.70;;;;;;4978627;28;20448;-69
2022/03/02 06:17:39;;;;;;;8.00;4.47;;;19.70;44.00;;;;;;4978499;28;20399;-69
2022/03/02 06:20:06;;;;;;;8.67;5.03;;;19.60;44.00;;;;;;4977593;28;20437;-69
2022/03/02 06:22:32;;;;;;;9.13;4.53;;;19.60;44.20;;;;;;4995898;28;20542;-69
2022/03/02 06:24:58;;;;;;;5.93;3.80;;;19.70;44.30;;;;;;4978063;28;20441;-69
2022/03/02 06:27:24;;;;;;;7.57;4.30;;;19.70;44.20;;;;;;4994697;28;20899;-69
2022/03/02 06:29:49;;;;;;;10.30;4.00;;;19.70;44.40;;;;;;4977729;28;20874;-69
2022/03/02 06:32:15;;;;;;;8.30;4.57;;;19.70;44.40;;;;;;4977981;28;20655;-68
2022/03/02 06:34:42;;;;;;;6.63;3.77;;;19.70;44.50;;;;;;4977275;28;20290;-67
2022/03/02 06:37:07;;;;;;;5.23;3.60;;;19.70;44.70;;;;;;4977959;28;20258;-67
2022/03/02 06:39:33;;;;;;;8.33;3.80;;;19.70;44.80;;;;;;4977460;28;20848;-67
2022/03/02 06:42:19;;;;;;;7.73;4.00;;;19.70;44.80;;;;;;4977990;28;20195;-68
2022/03/02 06:44:54;;;;;;;30.23;5.60;;;19.70;45.00;;;;;;4964008;28;20218;-68
2022/03/02 06:47:25;;;;;;;8.40;3.67;;;19.70;45.30;;;;;;4995264;28;20479;-68
2022/03/02 06:49:53;;;;;;;13.90;3.50;;;19.80;45.60;;;;;;4967100;28;20918;-69
2022/03/02 06:52:20;;;;;;;7.17;3.80;;;19.80;45.70;;;;;;4978139;28;20454;-67
2022/03/02 06:54:48;;;;;;;8.33;3.80;;;19.80;45.60;;;;;;4977818;28;20461;-68
2022/03/02 06:57:18;;;;;;;8.80;3.77;;;19.80;45.60;;;;;;4977980;28;20406;-68
2022/03/02 06:59:52;;;;;;;8.87;3.50;;;19.80;45.70;;;;;;4977548;28;20415;-67
2022/03/02 07:02:30;;;;;;;9.03;3.33;;;19.80;45.70;;;;;;4978005;28;20481;-68
2022/03/02 07:04:59;;;;;;;8.07;3.30;;;19.80;45.70;;;;;;4977697;28;20433;-68
2022/03/02 07:07:24;;;;;;;9.00;4.23;;;19.80;45.70;;;;;;4958531;28;20955;-68
2022/03/02 07:09:51;;;;;;;5.90;2.87;;;19.80;45.40;;;;;;4957876;28;20419;-68
2022/03/02 07:12:19;;;;;;;5.63;3.23;;;19.80;45.10;;;;;;4958079;28;20549;-68
2022/03/02 07:14:45;;;;;;;6.13;3.20;;;19.80;45.30;;;;;;4963600;28;20486;-67
2022/03/02 07:17:12;;;;;;;7.20;3.43;;;19.80;45.20;;;;;;4977375;28;20502;-66
2022/03/02 07:19:37;;;;;;;9.60;3.43;;;19.80;45.00;;;;;;4976546;28;20438;-69
2022/03/02 07:22:05;;;;;;;12.17;3.20;;;19.80;45.80;;;;;;4977246;28;20431;-67
2022/03/02 07:24:45;;;;;;;7.70;3.30;;;19.80;45.40;;;;;;4976886;28;20258;-67
2022/03/02 07:27:15;;;;;;;6.83;2.80;;;19.80;45.60;;;;;;4985168;28;20837;-67
2022/03/02 07:29:41;;;;;;;11.93;4.10;;;19.80;45.30;;;;;;4968799;28;20426;-67
2022/03/02 07:32:08;;;;;;;4.27;3.20;;;19.80;45.10;;;;;;4976813;28;20962;-66
2022/03/02 07:34:39;;;;;;;6.33;3.30;;;19.80;45.20;;;;;;4992995;28;20569;-66
2022/03/02 07:37:06;;;;;;;6.27;3.10;;;19.80;45.40;;;;;;4976820;28;20414;-66
2022/03/02 07:39:32;;;;;;;4.93;3.07;;;19.90;45.50;;;;;;4976552;28;20422;-67
2022/03/02 07:41:58;;;;;;;7.03;3.23;;;19.80;44.90;;;;;;4976950;28;20430;-66
2022/03/02 07:44:23;;;;;;;5.43;2.60;;;19.90;45.50;;;;;;4976613;28;20422;-66
2022/03/02 07:46:49;;;;;;;7.87;3.60;;;19.90;45.50;;;;;;4976664;28;20183;-66
2022/03/02 07:49:15;;;;;;;7.20;2.80;;;19.90;45.50;;;;;;4975969;28;20275;-66
2022/03/02 07:51:42;;;;;;;4.30;2.90;;;19.90;45.60;;;;;;4976811;28;20555;-68
2022/03/02 07:54:10;;;;;;;4.33;2.73;;;19.90;45.70;;;;;;4993802;28;20269;-67
2022/03/02 07:56:37;;;;;;;6.13;2.90;;;19.90;45.10;;;;;;4976450;28;21002;-67
2022/03/02 07:59:07;;;;;;;4.10;2.80;;;19.90;44.90;;;;;;4975830;28;20414;-67
2022/03/02 08:01:35;;;;;;;5.53;2.90;;;20.00;44.80;;;;;;4976478;28;20537;-67
2022/03/02 08:04:06;;;;;;;4.17;2.47;;;19.90;45.40;;;;;;4976202;28;20430;-66
2022/03/02 08:06:38;;;;;;;5.57;3.00;;;19.90;45.00;;;;;;4976091;28;20415;-67
2022/03/02 08:09:06;;;;;;;11.80;3.03;;;20.00;44.60;;;;;;4976103;28;20426;-66
2022/03/02 08:11:33;;;;;;;4.40;3.07;;;20.00;44.60;;;;;;4976192;28;20874;-66
2022/03/02 08:14:00;;;;;;;3.43;2.33;;;20.00;44.80;;;;;;4976014;28;20461;-67
2022/03/02 08:16:30;;;;;;;4.20;2.60;;;20.00;44.20;;;;;;4976053;28;20421;-67
2022/03/02 08:18:57;;;;;;;5.50;2.97;;;20.10;44.90;;;;;;4975652;28;20422;-66
2022/03/02 08:21:29;;;;;;;29.63;3.30;;;20.10;44.90;;;;;;4975675;28;20453;-66
2022/03/02 08:23:57;;;;;;;12.23;2.97;;;20.20;45.10;;;;;;4993740;28;20454;-66
2022/03/02 08:26:25;;;;;;;15.47;2.60;;;20.20;44.80;;;;;;4975768;28;20656;-65
2022/03/02 08:28:55;;;;;;;6.93;3.30;;;20.20;45.30;;;;;;4975585;28;20433;-66
2022/03/02 08:31:23;;;;;;;5.13;2.67;;;20.30;45.40;;;;;;4975110;28;20446;-66
2022/03/02 08:33:50;;;;;;;10.90;3.43;;;20.20;42.20;;;;;;4975551;28;20572;-68
2022/03/02 08:36:21;;;;;;;8.93;4.00;;;18.50;39.80;;;;;;4976082;28;20450;-67
2022/03/02 08:38:49;;;;;;;16.20;4.20;;;19.20;45.20;;;;;;4975899;28;20911;-69
2022/03/02 08:41:17;;;;;;;17.03;3.63;;;19.70;44.50;;;;;;4975818;28;20438;-67
2022/03/02 08:43:44;;;;;;;5.83;4.20;;;20.00;44.20;;;;;;4991287;28;20427;-66
2022/03/02 08:46:10;;;;;;;8.93;5.20;;;20.20;44.10;;;;;;4978250;28;20426;-66
2022/03/02 08:48:35;;;;;;;7.63;3.87;;;20.30;44.10;;;;;;4975272;28;20748;-68
2022/03/02 08:51:01;;;;;;;11.40;4.10;;;20.30;43.90;;;;;;4975815;28;20702;-68
2022/03/02 08:53:28;;;;;;;6.10;3.77;;;20.40;43.80;;;;;;4975990;28;20732;-68
2022/03/02 08:55:55;;;;;;;10.03;3.63;;;20.40;43.90;;;;;;4975811;28;20426;-68
2022/03/02 08:58:21;;;;;;;5.63;3.63;;;20.40;43.80;;;;;;4975889;28;20492;-66
2022/03/02 09:00:47;;;;;;;6.07;3.40;;;20.40;43.70;;;;;;4975576;28;20966;-68
2022/03/02 09:03:15;;;;;;;12.20;3.43;;;20.40;43.60;;;;;;4975969;28;20461;-69
2022/03/02 09:05:42;;;;;;;6.43;3.53;;;20.40;43.60;;;;;;4975739;28;20418;-69
2022/03/02 09:08:08;;;;;;;6.40;3.30;;;20.40;43.60;;;;;;4973752;28;20994;-66
2022/03/02 09:10:35;;;;;;;5.70;2.90;;;20.40;43.60;;;;;;4974947;28;20433;-68
2022/03/02 09:13:02;;;;;;;8.10;3.20;;;20.40;43.50;;;;;;4975541;28;20546;-67
2022/03/02 09:15:29;;;;;;;6.60;3.20;;;20.50;43.40;;;;;;4975421;28;21278;-68
2022/03/02 09:17:56;;;;;;;7.13;3.40;;;20.50;43.50;;;;;;4980775;28;20454;-67
2022/03/02 09:20:25;;;;;;;4.87;3.50;;;20.50;43.50;;;;;;4980674;28;20500;-69
2022/03/02 09:22:51;;;;;;;5.87;3.33;;;20.50;44.00;;;;;;4977952;28;20522;-65
2022/03/02 09:25:18;;;;;;;5.73;3.80;;;20.50;43.40;;;;;;4982125;28;20456;-67
2022/03/02 09:27:46;;;;;;;5.33;2.90;;;20.50;43.40;;;;;;4993097;28;20899;-66
2022/03/02 09:30:12;;;;;;;5.10;3.33;;;20.50;43.30;;;;;;4980454;28;20426;-67
2022/03/02 09:32:42;;;;;;;5.40;2.90;;;20.60;43.30;;;;;;4975682;28;20911;-67
2022/03/02 09:35:13;;;;;;;5.20;3.20;;;20.60;43.30;;;;;;4975450;28;20421;-68
2022/03/02 09:37:42;;;;;;;4.10;3.27;;;20.60;43.30;;;;;;4993251;28;20480;-69
2022/03/02 09:40:20;;;;;;;5.80;3.13;;;20.60;43.50;;;;;;4974788;28;20427;-68
2022/03/02 09:42:57;;;;;;;7.30;3.67;;;20.60;43.50;;;;;;4975671;28;20420;-66
2022/03/02 09:45:25;;;;;;;9.27;4.00;;;20.60;43.60;;;;;;4992439;28;20429;-66
2022/03/02 09:47:56;;;;;;;4.07;2.60;;;20.60;43.50;;;;;;4975408;28;20458;-67
2022/03/02 09:50:23;;;;;;;5.97;3.17;;;20.60;43.50;;;;;;4974711;28;20434;-65
2022/03/02 09:52:51;;;;;;;4.90;3.27;;;20.60;43.40;;;;;;4975508;28;20760;-67
2022/03/02 09:55:22;;;;;;;4.27;3.20;;;20.60;43.40;;;;;;4975202;28;20406;-65
2022/03/02 09:57:53;;;;;;;4.53;3.07;;;20.60;43.40;;;;;;4975341;28;20418;-65
2022/03/02 10:00:20;;;;;;;8.40;2.80;;;20.60;43.30;;;;;;4974833;28;20948;-67
2022/03/02 10:02:49;;;;;;;4.80;3.00;;;20.60;43.30;;;;;;4977871;28;20425;-69
2022/03/02 10:05:44;;;;;;;4.60;3.03;;;20.60;43.30;;;;;;4978186;28;20415;-67
2022/03/02 10:08:10;;;;;;;5.43;3.10;;;20.70;43.30;;;;;;4976656;28;20502;-65
2022/03/02 10:10:40;;;;;;;8.00;3.23;;;20.70;43.40;;;;;;4995465;28;20440;-68
2022/03/02 10:13:09;;;;;;;9.20;2.87;;;20.70;43.30;;;;;;4977623;28;21040;-68
2022/03/02 10:15:37;;;;;;;5.47;2.57;;;20.70;43.20;;;;;;4978182;28;20868;-68
2022/03/02 10:18:05;;;;;;;5.10;2.97;;;20.70;43.20;;;;;;4980393;28;20426;-68
2022/03/02 10:20:34;;;;;;;4.07;2.80;;;20.70;43.10;;;;;;4976946;28;20457;-66
2022/03/02 10:23:33;;;;;;;5.67;2.80;;;20.70;43.20;;;;;;4994774;28;20442;-68
2022/03/02 10:26:08;;;;;;;3.90;2.63;;;20.70;43.20;;;;;;4977988;28;20817;-66
2022/03/02 10:28:58;;;;;;;4.10;2.70;;;20.70;43.10;;;;;;4994842;28;20512;-68
2022/03/02 10:31:40;;;;;;;6.60;2.87;;;20.70;43.20;;;;;;4978005;28;20454;-68
2022/03/02 10:34:30;;;;;;;3.70;2.50;;;20.70;43.20;;;;;;4978424;28;20545;-67
2022/03/02 10:37:03;;;;;;;4.57;2.90;;;20.70;43.20;;;;;;4978347;28;20425;-69
2022/03/02 10:39:50;;;;;;;4.13;2.80;;;20.70;43.20;;;;;;4977204;28;20415;-69
2022/03/02 10:42:33;;;;;;;5.20;2.60;;;20.70;43.10;;;;;;4981541;28;20434;-66
2022/03/02 10:45:16;;;;;;;6.43;2.73;;;20.70;43.20;;;;;;4992787;28;20679;-66
2022/03/02 10:47:54;;;;;;;4.77;2.63;;;20.70;43.10;;;;;;4997489;28;20411;-70
2022/03/02 10:50:22;;;;;;;3.30;2.50;;;20.70;43.10;;;;;;4989661;28;20434;-67
2022/03/02 10:52:49;;;;;;;4.90;2.93;;;20.70;43.00;;;;;;4977964;28;20405;-66
2022/03/02 10:55:15;;;;;;;4.00;2.60;;;20.70;43.20;;;;;;4977833;28;20957;-67
2022/03/02 10:57:44;;;;;;;4.03;2.60;;;20.70;43.10;;;;;;4977469;28;20427;-67
2022/03/02 11:00:13;;;;;;;4.67;2.70;;;20.70;43.20;;;;;;4966959;28;20907;-68
2022/03/02 11:02:58;;;;;;;3.57;2.30;;;20.70;43.10;;;;;;4977852;28;20421;-65
2022/03/02 11:05:30;;;;;;;4.17;2.60;;;20.70;43.00;;;;;;4977723;28;20510;-67
2022/03/02 11:07:56;;;;;;;5.00;3.00;;;20.70;43.00;;;;;;4977195;28;20771;-66
2022/03/02 11:10:33;;;;;;;4.13;2.70;;;20.70;43.10;;;;;;4977041;28;20935;-67
2022/03/02 11:13:02;;;;;;;4.57;2.40;;;20.70;43.00;;;;;;4977135;28;20457;-68
2022/03/02 11:15:47;;;;;;;4.60;2.50;;;20.70;42.90;;;;;;4976794;28;20425;-67
2022/03/02 11:18:16;;;;;;;6.87;2.13;;;20.70;42.90;;;;;;4977436;28;20411;-69
2022/03/02 11:20:52;;;;;;;3.20;1.97;;;20.70;43.00;;;;;;4976680;28;20450;-70
2022/03/02 11:23:26;;;;;;;3.23;2.27;;;20.70;43.10;;;;;;4977247;28;20421;-68
2022/03/02 11:25:54;;;;;;;3.63;2.23;;;20.70;43.00;;;;;;4976476;28;20418;-69
2022/03/02 11:28:24;;;;;;;4.77;3.00;;;20.70;43.00;;;;;;4977122;28;20794;-68
2022/03/02 11:30:52;;;;;;;3.13;2.33;;;20.80;43.10;;;;;;4977126;28;20928;-68
2022/03/02 11:33:25;;;;;;;3.07;2.37;;;20.80;42.90;;;;;;4977254;28;20454;-67
2022/03/02 11:35:53;;;;;;;3.93;2.10;;;20.80;43.00;;;;;;4977183;28;20402;-66
2022/03/02 11:38:21;;;;;;;3.57;2.40;;;20.80;42.80;;;;;;4994687;28;20402;-66
2022/03/02 11:40:49;;;;;;;4.63;2.70;;;20.80;42.80;;;;;;4976461;28;20533;-65
2022/03/02 11:43:22;;;;;;;3.30;2.20;;;20.80;42.80;;;;;;4977029;28;20472;-68
2022/03/02 11:45:50;;;;;;;3.10;2.07;;;20.80;42.80;;;;;;4975905;28;20919;-67
2022/03/02 11:48:16;;;;;;;3.80;2.80;;;20.80;42.90;;;;;;4969696;28;20422;-67
2022/03/02 11:51:01;;;;;;;4.20;2.53;;;20.80;42.90;;;;;;4976541;28;20446;-68
2022/03/02 11:53:40;;;;;;;3.37;2.30;;;20.80;42.90;;;;;;4975419;28;20457;-69
2022/03/02 11:56:09;;;;;;;5.57;2.37;;;20.80;42.80;;;;;;4976442;28;20422;-67
2022/03/02 11:59:01;;;;;;;6.33;2.00;;;20.80;42.80;;;;;;4975907;28;20509;-69
2022/03/02 12:01:40;;;;;;;2.90;1.80;;;20.80;42.80;;;;;;4976617;28;20437;-69
2022/03/02 12:04:07;;;;;;;3.67;2.20;;;20.80;42.80;;;;;;4994318;28;20755;-65
2022/03/02 12:06:43;;;;;;;3.67;2.20;;;20.80;42.80;;;;;;4976373;28;20449;-66
2022/03/02 12:09:09;;;;;;;5.20;2.30;;;20.80;42.70;;;;;;4975919;28;20934;-68
2022/03/02 12:11:38;;;;;;;4.30;2.30;;;20.80;42.70;;;;;;4975739;28;20558;-67
2022/03/02 12:14:09;;;;;;;4.33;2.20;;;20.90;42.80;;;;;;4976103;28;20838;-68
2022/03/02 12:16:41;;;;;;;4.17;2.33;;;20.80;42.70;;;;;;4975553;28;20422;-67
2022/03/02 12:19:36;;;;;;;3.20;2.20;;;20.80;42.70;;;;;;4975833;28;20414;-68
2022/03/02 12:22:10;;;;;;;3.70;2.40;;;20.80;42.80;;;;;;4976064;28;20446;-67
2022/03/02 12:24:36;;;;;;;3.80;2.30;;;20.80;42.70;;;;;;4975304;28;20453;-66
2022/03/02 12:27:07;;;;;;;3.33;2.10;;;20.80;42.60;;;;;;4976289;28;20442;-68
2022/03/02 12:29:35;;;;;;;3.30;2.33;;;20.80;42.70;;;;;;4975732;28;20923;-69
2022/03/02 12:32:09;;;;;;;3.77;2.70;;;20.80;42.70;;;;;;4975940;28;20981;-68
2022/03/02 12:34:38;;;;;;;3.30;2.00;;;20.80;42.60;;;;;;4976101;28;20870;-67
2022/03/02 12:37:04;;;;;;;5.10;2.57;;;20.80;42.60;;;;;;4976205;28;20903;-67
2022/03/02 12:39:31;;;;;;;2.50;1.70;;;20.80;42.60;;;;;;4974884;28;20457;-66
2022/03/02 12:41:58;;;;;;;4.13;2.10;;;20.80;42.70;;;;;;4993706;28;20415;-66
2022/03/02 12:44:25;;;;;;;4.50;2.60;;;20.80;42.70;;;;;;4975679;28;20422;-68
2022/03/02 12:46:53;;;;;;;3.20;2.27;;;20.80;42.60;;;;;;4975809;28;20429;-65
2022/03/02 12:49:25;;;;;;;3.67;2.47;;;20.80;42.70;;;;;;4992979;28;20504;-67
2022/03/02 12:51:54;;;;;;;2.13;1.87;;;20.80;42.60;;;;;;4975358;28;20449;-66
2022/03/02 12:54:21;;;;;;;2.77;2.37;;;20.80;42.50;;;;;;4993373;28;20509;-67